createdAt,value
2023-04-22T00:00:19.341Z,8.45
2023-04-22T00:01:18.357Z,8.48
2023-04-22T00:02:18.357Z,8.52
2023-04-22T00:03:18.515Z,8.53
2023-04-22T00:04:18.582Z,8.46
2023-04-22T00:05:20.471Z,8.42
2023-04-22T00:06:19.313Z,8.46
2023-04-22T00:07:18.274Z,8.41
2023-04-22T00:08:18.270Z,8.42
2023-04-22T00:09:18.263Z,8.33
2023-04-22T00:10:18.250Z,8.31
2023-04-22T00:11:18.243Z,8.37
2023-04-22T00:12:18.258Z,8.33
2023-04-22T00:13:18.227Z,8.28
2023-04-22T00:14:18.220Z,8.24
2023-04-22T00:15:18.215Z,8.20
2023-04-22T00:16:18.230Z,8.26
2023-04-22T00:17:18.244Z,8.33
2023-04-22T00:18:18.193Z,8.26
2023-04-22T00:19:18.185Z,8.26
2023-04-22T00:20:18.175Z,8.27
2023-04-22T00:21:18.172Z,8.24
2023-04-22T00:22:18.181Z,8.28
2023-04-22T00:23:18.146Z,8.37
2023-04-22T00:24:18.138Z,8.30
2023-04-22T00:25:18.124Z,8.27
2023-04-22T00:26:19.135Z,8.34
2023-04-22T00:27:18.141Z,8.27
2023-04-22T00:28:18.109Z,8.26
2023-04-22T00:29:18.100Z,8.24
2023-04-22T00:30:18.096Z,8.27
2023-04-22T00:31:18.106Z,8.26
2023-04-22T00:32:18.091Z,8.20
2023-04-22T00:33:18.060Z,8.28
2023-04-22T00:34:18.189Z,8.23
2023-04-22T00:35:18.060Z,8.18
2023-04-22T00:36:18.054Z,8.24
2023-04-22T00:37:18.060Z,8.20
2023-04-22T00:38:18.028Z,8.13
2023-04-22T00:39:18.021Z,8.18
2023-04-22T00:40:18.024Z,8.20
2023-04-22T00:41:18.019Z,8.23
2023-04-22T00:42:18.031Z,8.19
2023-04-22T00:43:17.995Z,8.15
2023-04-22T00:44:17.974Z,8.20
2023-04-22T00:45:17.992Z,8.16
2023-04-22T00:46:17.979Z,8.15
2023-04-22T00:47:18.021Z,8.13
2023-04-22T00:48:17.958Z,8.18
2023-04-22T00:49:17.936Z,8.16
2023-04-22T00:50:17.942Z,8.13
2023-04-22T00:51:17.926Z,8.15
2023-04-22T00:52:17.955Z,8.10
2023-04-22T00:53:17.924Z,8.19
2023-04-22T00:54:17.893Z,8.19
2023-04-22T00:55:17.875Z,8.16
2023-04-22T00:56:17.877Z,8.08
2023-04-22T00:57:17.920Z,8.12
2023-04-22T00:58:17.870Z,8.16
2023-04-22T00:59:17.858Z,8.06
2023-04-22T01:00:17.849Z,8.13
2023-04-22T01:01:17.877Z,8.13
2023-04-22T01:02:18.015Z,8.05
2023-04-22T01:03:18.031Z,8.10
2023-04-22T01:04:17.968Z,8.12
2023-04-22T01:05:17.804Z,8.05
2023-04-22T01:06:17.810Z,8.01
2023-04-22T01:07:17.818Z,8.06
2023-04-22T01:08:17.799Z,8.06
2023-04-22T01:09:17.778Z,8.09
2023-04-22T01:10:17.770Z,8.06
2023-04-22T01:11:17.764Z,8.01
2023-04-22T01:12:17.773Z,8.12
2023-04-22T01:13:17.758Z,8.01
2023-04-22T01:14:17.741Z,8.05
2023-04-22T01:15:17.735Z,8.03
2023-04-22T01:16:17.761Z,8.10
2023-04-22T01:17:17.750Z,8.01
2023-04-22T01:18:17.715Z,8.01
2023-04-22T01:19:17.729Z,8.03
2023-04-22T01:20:17.693Z,7.94
2023-04-22T01:21:17.685Z,7.95
2023-04-22T01:22:17.697Z,8.08
2023-04-22T01:23:17.665Z,8.05
2023-04-22T01:24:17.671Z,8.06
2023-04-22T01:25:17.667Z,8.05
2023-04-22T01:26:17.653Z,8.06
2023-04-22T01:27:17.677Z,8.12
2023-04-22T01:28:17.648Z,8.06
2023-04-22T01:29:17.623Z,8.06
2023-04-22T01:30:17.618Z,8.15
2023-04-22T01:31:17.612Z,8.12
2023-04-22T01:32:17.686Z,8.15
2023-04-22T01:33:17.634Z,8.10
2023-04-22T01:34:17.591Z,8.16
2023-04-22T01:35:17.569Z,8.13
2023-04-22T01:36:17.606Z,8.16
2023-04-22T01:37:17.582Z,8.19
2023-04-22T01:38:17.567Z,8.16
2023-04-22T01:39:17.555Z,8.15
2023-04-22T01:40:17.544Z,8.12
2023-04-22T01:41:17.522Z,8.13
2023-04-22T01:42:17.545Z,8.24
2023-04-22T01:43:17.516Z,8.19
2023-04-22T01:44:17.506Z,8.18
2023-04-22T01:45:17.515Z,8.16
2023-04-22T01:46:17.514Z,8.20
2023-04-22T01:47:17.507Z,8.26
2023-04-22T01:48:17.523Z,8.19
2023-04-22T01:49:17.468Z,8.26
2023-04-22T01:50:17.454Z,8.24
2023-04-22T01:51:17.468Z,8.26
2023-04-22T01:52:17.477Z,8.33
2023-04-22T01:53:17.476Z,8.30
2023-04-22T01:54:17.432Z,8.30
2023-04-22T01:55:17.479Z,8.30
2023-04-22T01:56:17.417Z,8.34
2023-04-22T01:57:17.429Z,8.34
2023-04-22T01:58:17.397Z,8.31
2023-04-22T01:59:17.397Z,8.31
2023-04-22T02:00:17.386Z,8.38
2023-04-22T02:01:17.393Z,8.36
2023-04-22T02:02:17.465Z,8.33
2023-04-22T02:03:17.414Z,8.33
2023-04-22T02:04:17.357Z,8.28
2023-04-22T02:05:17.344Z,8.20
2023-04-22T02:06:17.338Z,8.19
2023-04-22T02:07:17.368Z,8.19
2023-04-22T02:08:17.317Z,8.15
2023-04-22T02:09:17.314Z,8.23
2023-04-22T02:10:17.300Z,8.16
2023-04-22T02:11:17.292Z,8.15
2023-04-22T02:12:17.309Z,8.19
2023-04-22T02:13:17.269Z,8.20
2023-04-22T02:14:17.270Z,8.20
2023-04-22T02:15:17.263Z,8.20
2023-04-22T02:16:17.331Z,8.18
2023-04-22T02:17:17.248Z,8.23
2023-04-22T02:18:17.258Z,8.23
2023-04-22T02:19:17.225Z,8.18
2023-04-22T02:20:17.266Z,8.20
2023-04-22T02:21:17.219Z,8.20
2023-04-22T02:22:17.204Z,8.18
2023-04-22T02:23:17.222Z,8.23
2023-04-22T02:24:17.194Z,8.19
2023-04-22T02:25:17.180Z,8.18
2023-04-22T02:26:17.181Z,8.24
2023-04-22T02:27:17.182Z,8.23
2023-04-22T02:28:17.195Z,8.16
2023-04-22T02:29:17.173Z,8.24
2023-04-22T02:30:17.147Z,8.16
2023-04-22T02:31:17.149Z,8.24
2023-04-22T02:32:17.119Z,8.23
2023-04-22T02:33:17.142Z,8.23
2023-04-22T02:34:17.116Z,8.23
2023-04-22T02:35:17.100Z,8.12
2023-04-22T02:36:17.099Z,8.23
2023-04-22T02:37:17.094Z,8.13
2023-04-22T02:38:17.116Z,8.13
2023-04-22T02:39:17.066Z,8.16
2023-04-22T02:40:17.069Z,8.13
2023-04-22T02:41:17.050Z,8.15
2023-04-22T02:42:17.049Z,8.16
2023-04-22T02:43:17.063Z,8.24
2023-04-22T02:44:17.033Z,8.09
2023-04-22T02:45:17.018Z,8.18
2023-04-22T02:46:17.063Z,8.23
2023-04-22T02:47:17.008Z,8.19
2023-04-22T02:48:17.022Z,8.13
2023-04-22T02:49:17.019Z,8.30
2023-04-22T02:50:16.986Z,8.16
2023-04-22T02:51:16.970Z,8.10
2023-04-22T02:52:16.983Z,8.12
2023-04-22T02:53:16.992Z,8.18
2023-04-22T02:54:16.967Z,8.19
2023-04-22T02:55:16.950Z,8.16
2023-04-22T02:56:16.927Z,8.20
2023-04-22T02:57:16.928Z,8.13
2023-04-22T02:58:16.943Z,8.13
2023-04-22T02:59:17.024Z,8.12
2023-04-22T03:00:16.912Z,8.13
2023-04-22T03:01:16.936Z,8.12
2023-04-22T03:02:16.918Z,8.12
2023-04-22T03:03:16.993Z,8.16
2023-04-22T03:04:16.965Z,8.20
2023-04-22T03:05:16.857Z,8.23
2023-04-22T03:06:16.846Z,8.20
2023-04-22T03:07:16.842Z,8.18
2023-04-22T03:08:16.858Z,8.20
2023-04-22T03:09:16.827Z,8.18
2023-04-22T03:10:16.816Z,8.20
2023-04-22T03:11:16.817Z,8.10
2023-04-22T03:12:16.799Z,8.24
2023-04-22T03:13:16.820Z,8.16
2023-04-22T03:14:16.807Z,8.20
2023-04-22T03:15:19.585Z,8.19
2023-04-22T03:16:16.838Z,8.13
2023-04-22T03:17:16.780Z,8.20
2023-04-22T03:18:16.778Z,8.13
2023-04-22T03:19:16.754Z,8.13
2023-04-22T03:20:16.752Z,8.13
2023-04-22T03:21:16.751Z,8.10
2023-04-22T03:22:16.735Z,8.10
2023-04-22T03:23:16.749Z,8.06
2023-04-22T03:24:16.724Z,8.08
2023-04-22T03:25:16.709Z,8.15
2023-04-22T03:26:16.699Z,8.06
2023-04-22T03:27:16.686Z,8.06
2023-04-22T03:28:16.710Z,8.08
2023-04-22T03:29:16.676Z,8.13
2023-04-22T03:30:16.693Z,8.10
2023-04-22T03:31:16.661Z,8.15
2023-04-22T03:32:16.692Z,8.13
2023-04-22T03:33:16.782Z,8.15
2023-04-22T03:34:16.652Z,8.18
2023-04-22T03:35:16.631Z,8.24
2023-04-22T03:36:16.621Z,8.16
2023-04-22T03:37:16.624Z,8.24
2023-04-22T03:38:16.667Z,8.30
2023-04-22T03:39:16.604Z,8.28
2023-04-22T03:40:16.605Z,8.28
2023-04-22T03:41:16.612Z,8.37
2023-04-22T03:42:16.578Z,8.30
2023-04-22T03:43:16.596Z,8.33
2023-04-22T03:44:16.566Z,8.33
2023-04-22T03:45:16.565Z,8.28
2023-04-22T03:46:16.580Z,8.24
2023-04-22T03:47:16.539Z,8.23
2023-04-22T03:48:16.553Z,8.28
2023-04-22T03:49:16.546Z,8.20
2023-04-22T03:50:16.513Z,8.30
2023-04-22T03:51:16.502Z,8.31
2023-04-22T03:52:16.502Z,8.33
2023-04-22T03:53:16.514Z,8.28
2023-04-22T03:54:16.493Z,8.37
2023-04-22T03:55:16.466Z,8.33
2023-04-22T03:56:16.472Z,8.28
2023-04-22T03:57:17.453Z,8.37
2023-04-22T03:58:16.484Z,8.41
2023-04-22T03:59:16.441Z,8.31
2023-04-22T04:00:16.440Z,8.44
2023-04-22T04:01:16.423Z,8.38
2023-04-22T04:02:16.513Z,8.41
2023-04-22T04:03:16.548Z,8.37
2023-04-22T04:04:16.618Z,8.37
2023-04-22T04:05:16.525Z,8.48
2023-04-22T04:06:16.388Z,8.34
2023-04-22T04:07:16.378Z,8.46
2023-04-22T04:08:16.396Z,8.44
2023-04-22T04:09:16.361Z,8.41
2023-04-22T04:10:16.356Z,8.45
2023-04-22T04:11:16.353Z,8.42
2023-04-22T04:12:16.340Z,8.45
2023-04-22T04:13:16.362Z,8.44
2023-04-22T04:14:16.374Z,8.42
2023-04-22T04:15:16.333Z,8.55
2023-04-22T04:16:16.398Z,8.51
2023-04-22T04:17:16.305Z,8.45
2023-04-22T04:18:16.312Z,8.49
2023-04-22T04:19:16.288Z,8.51
2023-04-22T04:20:16.292Z,8.61
2023-04-22T04:21:16.267Z,8.58
2023-04-22T04:22:16.281Z,8.61
2023-04-22T04:23:16.280Z,8.70
2023-04-22T04:24:16.247Z,8.67
2023-04-22T04:25:16.232Z,8.64
2023-04-22T04:26:16.231Z,8.60
2023-04-22T04:27:16.224Z,8.67
2023-04-22T04:28:16.254Z,8.76
2023-04-22T04:29:16.205Z,8.69
2023-04-22T04:30:16.195Z,8.67
2023-04-22T04:31:17.220Z,8.67
2023-04-22T04:32:16.175Z,8.69
2023-04-22T04:33:16.207Z,8.63
2023-04-22T04:34:16.165Z,8.64
2023-04-22T04:35:16.164Z,8.66
2023-04-22T04:36:16.169Z,8.71
2023-04-22T04:37:16.141Z,8.69
2023-04-22T04:38:16.158Z,8.76
2023-04-22T04:39:16.128Z,8.70
2023-04-22T04:40:16.125Z,8.67
2023-04-22T04:41:16.112Z,8.64
2023-04-22T04:42:16.123Z,8.66
2023-04-22T04:43:16.148Z,8.76
2023-04-22T04:44:16.086Z,8.82
2023-04-22T04:45:16.122Z,8.79
2023-04-22T04:46:16.095Z,8.99
2023-04-22T04:47:16.066Z,9.06
2023-04-22T04:48:16.107Z,9.43
2023-04-22T04:49:16.086Z,9.54
2023-04-22T04:50:16.041Z,9.82
2023-04-22T04:51:16.631Z,9.87
2023-04-22T04:52:16.031Z,10.04
2023-04-22T04:53:16.064Z,10.07
2023-04-22T04:54:16.024Z,10.15
2023-04-22T04:55:15.997Z,10.16
2023-04-22T04:56:16.005Z,9.97
2023-04-22T04:57:16.010Z,10.10
2023-04-22T04:58:15.977Z,10.07
2023-04-22T04:59:15.999Z,10.30
2023-04-22T05:00:15.959Z,10.17
2023-04-22T05:01:15.977Z,10.25
2023-04-22T05:02:16.043Z,10.34
2023-04-22T05:03:16.049Z,10.33
2023-04-22T05:04:16.189Z,10.30
2023-04-22T05:05:15.926Z,10.46
2023-04-22T05:06:15.936Z,10.49
2023-04-22T05:07:15.907Z,10.49
2023-04-22T05:08:15.914Z,10.69
2023-04-22T05:09:15.918Z,10.64
2023-04-22T05:10:15.914Z,10.86
2023-04-22T05:11:15.888Z,10.96
2023-04-22T05:12:15.887Z,11.15
2023-04-22T05:13:15.857Z,11.29
2023-04-22T05:14:15.891Z,11.48
2023-04-22T05:15:15.856Z,11.69
2023-04-22T05:16:15.879Z,12.02
2023-04-22T05:17:15.839Z,12.35
2023-04-22T05:18:15.823Z,12.50
2023-04-22T05:19:16.853Z,12.65
2023-04-22T05:20:15.827Z,12.62
2023-04-22T05:21:15.814Z,12.93
2023-04-22T05:22:15.804Z,13.13
2023-04-22T05:23:15.783Z,13.42
2023-04-22T05:24:15.802Z,13.70
2023-04-22T05:25:15.772Z,13.90
2023-04-22T05:26:15.773Z,14.29
2023-04-22T05:27:15.758Z,14.77
2023-04-22T05:28:15.740Z,15.29
2023-04-22T05:29:15.761Z,15.70
2023-04-22T05:30:15.729Z,15.95
2023-04-22T05:31:15.722Z,16.24
2023-04-22T05:32:15.777Z,16.36
2023-04-22T05:33:15.729Z,16.33
2023-04-22T05:34:15.740Z,16.46
2023-04-22T05:35:15.694Z,16.47
2023-04-22T05:36:15.686Z,16.51
2023-04-22T05:37:15.673Z,16.24
2023-04-22T05:38:15.668Z,16.08
2023-04-22T05:39:15.694Z,15.97
2023-04-22T05:40:15.649Z,15.98
2023-04-22T05:41:15.640Z,16.33
2023-04-22T05:42:15.638Z,16.78
2023-04-22T05:43:15.621Z,17.08
2023-04-22T05:44:15.646Z,17.20
2023-04-22T05:45:15.610Z,17.30
2023-04-22T05:46:15.663Z,17.34
2023-04-22T05:47:15.601Z,17.09
2023-04-22T05:48:15.588Z,16.99
2023-04-22T05:49:15.604Z,17.04
2023-04-22T05:50:15.566Z,17.22
2023-04-22T05:51:15.560Z,17.23
2023-04-22T05:52:15.550Z,17.42
2023-04-22T05:53:15.542Z,17.42
2023-04-22T05:54:15.571Z,17.36
2023-04-22T05:55:15.543Z,17.64
2023-04-22T05:56:15.516Z,18.10
2023-04-22T05:57:16.501Z,18.40
2023-04-22T05:58:16.501Z,18.58
2023-04-22T05:59:15.525Z,18.96
2023-04-22T06:00:15.489Z,19.19
2023-04-22T06:01:15.484Z,19.39
2023-04-22T06:02:15.569Z,19.59
2023-04-22T06:03:15.644Z,19.95
2023-04-22T06:04:15.861Z,20.28
2023-04-22T06:05:15.644Z,20.28
2023-04-22T06:06:15.445Z,20.40
2023-04-22T06:07:15.438Z,20.56
2023-04-22T06:08:15.429Z,20.55
2023-04-22T06:09:15.447Z,20.43
2023-04-22T06:10:15.427Z,20.24
2023-04-22T06:11:15.405Z,19.64
2023-04-22T06:12:15.396Z,19.14
2023-04-22T06:13:15.380Z,18.98
2023-04-22T06:14:16.407Z,18.83
2023-04-22T06:15:15.379Z,18.99
2023-04-22T06:16:15.367Z,18.99
2023-04-22T06:17:15.361Z,19.52
2023-04-22T06:18:15.354Z,19.74
2023-04-22T06:19:15.374Z,19.85
2023-04-22T06:20:15.334Z,19.74
2023-04-22T06:21:15.327Z,19.89
2023-04-22T06:22:15.323Z,19.85
2023-04-22T06:23:15.312Z,20.19
2023-04-22T06:24:15.333Z,20.66
2023-04-22T06:25:15.302Z,20.74
2023-04-22T06:26:15.294Z,20.65
2023-04-22T06:27:15.294Z,20.63
2023-04-22T06:28:15.272Z,20.55
2023-04-22T06:29:15.292Z,20.59
2023-04-22T06:30:15.262Z,20.70
2023-04-22T06:31:15.277Z,20.56
2023-04-22T06:32:15.246Z,20.40
2023-04-22T06:33:15.289Z,20.37
2023-04-22T06:34:15.266Z,20.21
2023-04-22T06:35:15.223Z,20.11
2023-04-22T06:36:15.216Z,19.99
2023-04-22T06:37:15.218Z,19.49
2023-04-22T06:38:15.205Z,19.19
2023-04-22T06:39:15.217Z,19.26
2023-04-22T06:40:15.185Z,19.22
2023-04-22T06:41:15.174Z,19.15
2023-04-22T06:42:15.171Z,19.09
2023-04-22T06:43:15.172Z,19.02
2023-04-22T06:44:15.179Z,19.00
2023-04-22T06:45:15.153Z,18.86
2023-04-22T06:46:15.178Z,18.71
2023-04-22T06:47:15.143Z,18.70
2023-04-22T06:48:15.125Z,18.78
2023-04-22T06:49:15.152Z,18.58
2023-04-22T06:50:15.129Z,18.84
2023-04-22T06:51:15.104Z,18.93
2023-04-22T06:52:15.121Z,18.96
2023-04-22T06:53:15.089Z,19.09
2023-04-22T06:54:15.102Z,19.07
2023-04-22T06:55:15.081Z,19.33
2023-04-22T06:56:15.068Z,19.66
2023-04-22T06:57:15.060Z,19.88
2023-04-22T06:58:15.060Z,20.02
2023-04-22T06:59:15.069Z,20.21
2023-04-22T07:00:15.047Z,20.29
2023-04-22T07:01:15.036Z,20.44
2023-04-22T07:02:15.137Z,20.56
2023-04-22T07:03:16.064Z,20.81
2023-04-22T07:04:15.075Z,20.95
2023-04-22T07:05:15.007Z,21.27
2023-04-22T07:06:15.004Z,21.50
2023-04-22T07:07:14.991Z,21.77
2023-04-22T07:08:14.985Z,21.95
2023-04-22T07:09:14.998Z,22.39
2023-04-22T07:10:14.993Z,22.53
2023-04-22T07:11:14.965Z,22.65
2023-04-22T07:12:14.952Z,23.05
2023-04-22T07:13:14.946Z,23.25
2023-04-22T07:14:14.966Z,23.58
2023-04-22T07:15:14.931Z,23.87
2023-04-22T07:16:14.966Z,24.08
2023-04-22T07:17:14.912Z,24.45
2023-04-22T07:18:14.901Z,24.77
2023-04-22T07:19:14.922Z,25.14
2023-04-22T07:20:14.909Z,25.11
2023-04-22T07:21:14.890Z,25.22
2023-04-22T07:22:14.881Z,25.53
2023-04-22T07:23:14.874Z,25.99
2023-04-22T07:24:14.888Z,26.00
2023-04-22T07:25:14.854Z,25.69
2023-04-22T07:26:14.848Z,25.32
2023-04-22T07:27:14.843Z,24.96
2023-04-22T07:28:14.833Z,24.77
2023-04-22T07:29:14.846Z,24.68
2023-04-22T07:30:14.844Z,25.17
2023-04-22T07:31:14.822Z,25.51
2023-04-22T07:32:14.818Z,25.54
2023-04-22T07:33:14.801Z,25.87
2023-04-22T07:34:14.825Z,25.83
2023-04-22T07:35:14.789Z,26.06
2023-04-22T07:36:14.779Z,26.29
2023-04-22T07:37:14.771Z,26.62
2023-04-22T07:38:14.811Z,27.00
2023-04-22T07:39:14.786Z,26.71
2023-04-22T07:40:14.759Z,26.51
2023-04-22T07:41:14.739Z,26.48
2023-04-22T07:42:14.743Z,26.63
2023-04-22T07:43:14.752Z,26.99
2023-04-22T07:44:14.747Z,27.00
2023-04-22T07:45:14.732Z,27.12
2023-04-22T07:46:14.725Z,27.27
2023-04-22T07:47:14.705Z,27.40
2023-04-22T07:48:14.703Z,27.75
2023-04-22T07:49:14.718Z,27.58
2023-04-22T07:50:14.689Z,27.33
2023-04-22T07:51:14.675Z,27.65
2023-04-22T07:52:14.671Z,27.55
2023-04-22T07:53:14.727Z,27.40
2023-04-22T07:54:14.658Z,27.25
2023-04-22T07:55:14.673Z,27.39
2023-04-22T07:56:14.648Z,27.67
2023-04-22T07:57:14.638Z,28.04
2023-04-22T07:58:14.633Z,27.75
2023-04-22T07:59:14.622Z,27.92
2023-04-22T08:00:14.641Z,27.80
2023-04-22T08:01:14.646Z,27.51
2023-04-22T08:02:14.693Z,27.45
2023-04-22T08:03:14.816Z,27.59
2023-04-22T08:04:14.920Z,27.64
2023-04-22T08:05:14.643Z,28.10
2023-04-22T08:06:14.580Z,28.25
2023-04-22T08:07:30.805Z,28.08
2023-04-22T08:08:16.575Z,28.22
2023-04-22T08:09:14.592Z,28.27
2023-04-22T08:10:14.578Z,28.39
2023-04-22T08:11:14.554Z,28.41
2023-04-22T08:12:14.545Z,28.38
2023-04-22T08:13:15.887Z,28.38
2023-04-22T08:14:14.535Z,27.82
2023-04-22T08:15:14.555Z,27.86
2023-04-22T08:16:14.571Z,27.45
2023-04-22T08:17:14.524Z,27.35
2023-04-22T08:18:14.508Z,27.37
2023-04-22T08:19:14.504Z,27.52
2023-04-22T08:20:14.531Z,27.11
2023-04-22T08:21:14.514Z,26.96
2023-04-22T08:22:14.492Z,26.55
2023-04-22T08:23:14.480Z,26.37
2023-04-22T08:24:14.478Z,26.18
2023-04-22T08:25:14.496Z,26.13
2023-04-22T08:26:14.461Z,25.93
2023-04-22T08:27:14.454Z,26.05
2023-04-22T08:28:14.449Z,26.59
2023-04-22T08:29:14.447Z,26.81
2023-04-22T08:30:14.464Z,27.21
2023-04-22T08:31:14.439Z,27.39
2023-04-22T08:32:14.421Z,27.67
2023-04-22T08:33:14.427Z,27.93
2023-04-22T08:34:14.412Z,28.11
2023-04-22T08:35:14.420Z,28.01
2023-04-22T08:36:14.403Z,28.00
2023-04-22T08:37:14.390Z,27.85
2023-04-22T08:38:14.412Z,28.07
2023-04-22T08:39:14.380Z,28.10
2023-04-22T08:40:14.389Z,28.08
2023-04-22T08:41:14.367Z,28.25
2023-04-22T08:42:14.346Z,27.92
2023-04-22T08:43:14.347Z,28.10
2023-04-22T08:44:14.358Z,28.25
2023-04-22T08:45:14.353Z,28.27
2023-04-22T08:46:14.345Z,28.32
2023-04-22T08:47:14.318Z,28.45
2023-04-22T08:48:14.305Z,28.54
2023-04-22T08:49:14.300Z,28.84
2023-04-22T08:50:14.317Z,28.75
2023-04-22T08:51:14.285Z,28.48
2023-04-22T08:52:14.281Z,28.42
2023-04-22T08:53:14.272Z,27.87
2023-04-22T08:54:14.268Z,27.42
2023-04-22T08:55:14.281Z,27.26
2023-04-22T08:56:14.254Z,27.33
2023-04-22T08:57:14.249Z,27.22
2023-04-22T08:58:14.241Z,27.15
2023-04-22T08:59:14.237Z,27.05
2023-04-22T09:00:14.253Z,26.55
2023-04-22T09:01:14.250Z,26.34
2023-04-22T09:02:14.277Z,26.16
2023-04-22T09:03:14.249Z,26.18
2023-04-22T09:04:14.333Z,26.15
2023-04-22T09:05:14.218Z,26.16
2023-04-22T09:06:14.183Z,26.41
2023-04-22T09:07:14.175Z,26.75
2023-04-22T09:08:14.166Z,27.14
2023-04-22T09:09:14.158Z,27.29
2023-04-22T09:10:14.198Z,27.48
2023-04-22T09:11:14.154Z,27.44
2023-04-22T09:12:14.151Z,27.32
2023-04-22T09:13:14.132Z,27.30
2023-04-22T09:14:14.134Z,27.26
2023-04-22T09:15:14.144Z,27.44
2023-04-22T09:16:14.140Z,27.80
2023-04-22T09:17:14.108Z,28.22
2023-04-22T09:18:14.100Z,28.45
2023-04-22T09:19:14.086Z,28.63
2023-04-22T09:20:15.113Z,28.82
2023-04-22T09:21:14.077Z,28.57
2023-04-22T09:22:14.145Z,27.95
2023-04-22T09:23:14.060Z,27.51
2023-04-22T09:24:14.060Z,27.52
2023-04-22T09:25:14.073Z,27.52
2023-04-22T09:26:14.045Z,27.42
2023-04-22T09:27:14.034Z,27.44
2023-04-22T09:28:14.041Z,27.36
2023-04-22T09:29:14.019Z,27.44
2023-04-22T09:30:14.037Z,27.18
2023-04-22T09:31:14.053Z,27.07
2023-04-22T09:32:14.098Z,26.73
2023-04-22T09:33:14.003Z,26.62
2023-04-22T09:34:13.988Z,26.83
2023-04-22T09:35:14.010Z,26.68
2023-04-22T09:36:13.965Z,26.96
2023-04-22T09:37:13.961Z,26.66
2023-04-22T09:38:14.103Z,26.81
2023-04-22T09:39:13.967Z,26.33
2023-04-22T09:40:13.970Z,26.23
2023-04-22T09:41:13.932Z,26.52
2023-04-22T09:42:13.929Z,26.63
2023-04-22T09:43:13.920Z,26.75
2023-04-22T09:44:13.908Z,26.44
2023-04-22T09:45:13.949Z,25.91
2023-04-22T09:46:13.946Z,25.69
2023-04-22T09:47:13.895Z,25.32
2023-04-22T09:48:13.907Z,25.07
2023-04-22T09:49:13.876Z,24.76
2023-04-22T09:50:13.869Z,24.40
2023-04-22T09:51:13.883Z,24.50
2023-04-22T09:52:13.860Z,24.30
2023-04-22T09:53:13.847Z,24.38
2023-04-22T09:54:13.835Z,24.29
2023-04-22T09:55:13.836Z,24.45
2023-04-22T09:56:13.855Z,24.68
2023-04-22T09:57:13.821Z,24.36
2023-04-22T09:58:13.825Z,24.28
2023-04-22T09:59:13.800Z,24.29
2023-04-22T10:00:13.815Z,24.39
2023-04-22T10:01:13.854Z,24.63
2023-04-22T10:02:13.825Z,24.86
2023-04-22T10:03:13.950Z,24.66
2023-04-22T10:04:13.850Z,24.32
2023-04-22T10:05:13.752Z,24.30
2023-04-22T10:06:13.775Z,24.43
2023-04-22T10:07:13.744Z,24.20
2023-04-22T10:08:13.750Z,24.02
2023-04-22T10:09:13.722Z,24.14
2023-04-22T10:10:13.762Z,24.20
2023-04-22T10:11:13.774Z,24.03
2023-04-22T10:12:15.113Z,23.84
2023-04-22T10:13:13.696Z,23.88
2023-04-22T10:14:13.680Z,23.98
2023-04-22T10:15:13.881Z,23.98
2023-04-22T10:16:13.689Z,23.96
2023-04-22T10:17:13.668Z,24.28
2023-04-22T10:18:13.665Z,24.48
2023-04-22T10:19:13.641Z,24.38
2023-04-22T10:20:13.644Z,24.30
2023-04-22T10:21:13.658Z,24.35
2023-04-22T10:22:13.621Z,24.28
2023-04-22T10:23:13.615Z,24.24
2023-04-22T10:24:13.600Z,24.33
2023-04-22T10:25:13.604Z,24.28
2023-04-22T10:26:13.614Z,24.23
2023-04-22T10:27:13.581Z,24.02
2023-04-22T10:28:13.584Z,23.93
2023-04-22T10:29:13.571Z,23.91
2023-04-22T10:30:13.556Z,23.98
2023-04-22T10:31:13.697Z,23.84
2023-04-22T10:32:13.547Z,23.69
2023-04-22T10:33:13.542Z,23.66
2023-04-22T10:34:13.525Z,23.62
2023-04-22T10:35:13.518Z,23.66
2023-04-22T10:36:13.534Z,23.91
2023-04-22T10:37:13.515Z,23.95
2023-04-22T10:38:13.512Z,24.28
2023-04-22T10:39:13.489Z,24.48
2023-04-22T10:40:13.487Z,24.61
2023-04-22T10:41:13.503Z,24.51
2023-04-22T10:42:13.472Z,24.24
2023-04-22T10:43:13.456Z,24.33
2023-04-22T10:44:13.450Z,24.29
2023-04-22T10:45:13.455Z,24.47
2023-04-22T10:46:13.493Z,24.61
2023-04-22T10:47:13.459Z,24.91
2023-04-22T10:48:13.422Z,24.84
2023-04-22T10:49:13.414Z,24.76
2023-04-22T10:50:13.437Z,24.93
2023-04-22T10:51:13.433Z,25.01
2023-04-22T10:52:13.393Z,25.11
2023-04-22T10:53:13.386Z,25.07
2023-04-22T10:54:13.388Z,24.66
2023-04-22T10:55:13.374Z,24.28
2023-04-22T10:56:13.387Z,24.28
2023-04-22T10:57:13.358Z,24.50
2023-04-22T10:58:13.351Z,24.30
2023-04-22T10:59:13.331Z,24.30
2023-04-22T11:00:14.362Z,24.30
2023-04-22T11:01:13.366Z,24.51
2023-04-22T11:02:13.423Z,24.60
2023-04-22T11:03:13.440Z,24.84
2023-04-22T11:04:13.401Z,24.85
2023-04-22T11:05:13.296Z,24.39
2023-04-22T11:06:13.286Z,24.13
2023-04-22T11:07:13.302Z,24.02
2023-04-22T11:08:13.270Z,23.98
2023-04-22T11:09:13.263Z,23.95
2023-04-22T11:10:13.259Z,23.84
2023-04-22T11:11:13.253Z,23.87
2023-04-22T11:12:13.262Z,23.58
2023-04-22T11:13:13.227Z,23.51
2023-04-22T11:14:13.223Z,23.63
2023-04-22T11:15:13.209Z,23.66
2023-04-22T11:16:13.264Z,23.62
2023-04-22T11:17:13.204Z,23.63
2023-04-22T11:18:13.193Z,23.59
2023-04-22T11:19:13.183Z,23.83
2023-04-22T11:20:13.186Z,23.87
2023-04-22T11:21:13.198Z,24.02
2023-04-22T11:22:13.292Z,23.98
2023-04-22T11:23:13.163Z,24.02
2023-04-22T11:24:13.149Z,24.18
2023-04-22T11:25:13.143Z,24.18
2023-04-22T11:26:13.171Z,24.08
2023-04-22T11:27:13.120Z,24.33
2023-04-22T11:28:13.269Z,24.51
2023-04-22T11:29:13.109Z,24.36
2023-04-22T11:30:13.102Z,24.39
2023-04-22T11:31:13.150Z,24.32
2023-04-22T11:32:13.087Z,24.11
2023-04-22T11:33:13.083Z,23.99
2023-04-22T11:34:13.074Z,23.84
2023-04-22T11:35:13.074Z,23.78
2023-04-22T11:36:13.118Z,23.62
2023-04-22T11:37:13.050Z,23.58
2023-04-22T11:38:13.042Z,23.46
2023-04-22T11:39:13.040Z,23.36
2023-04-22T11:40:28.999Z,23.31
2023-04-22T11:41:15.042Z,23.37
2023-04-22T11:42:13.006Z,23.56
2023-04-22T11:43:13.010Z,23.58
2023-04-22T11:44:12.994Z,23.62
2023-04-22T11:45:12.982Z,23.54
2023-04-22T11:46:13.095Z,23.59
2023-04-22T11:47:12.974Z,23.39
2023-04-22T11:48:12.977Z,23.32
2023-04-22T11:49:12.961Z,23.34
2023-04-22T11:50:13.044Z,23.36
2023-04-22T11:51:12.948Z,23.34
2023-04-22T11:52:12.970Z,23.34
2023-04-22T11:53:12.930Z,23.58
2023-04-22T11:54:12.915Z,23.76
2023-04-22T11:55:12.898Z,23.84
2023-04-22T11:56:12.927Z,23.98
2023-04-22T11:57:12.897Z,24.06
2023-04-22T11:58:12.879Z,24.14
2023-04-22T11:59:12.884Z,24.17
2023-04-22T12:00:12.934Z,24.16
2023-04-22T12:01:12.859Z,24.08
2023-04-22T12:02:13.040Z,23.83
2023-04-22T12:03:15.095Z,23.84
2023-04-22T12:04:12.929Z,23.88
2023-04-22T12:05:12.844Z,23.98
2023-04-22T12:06:12.865Z,23.98
2023-04-22T12:07:12.815Z,23.96
2023-04-22T12:08:12.812Z,24.08
2023-04-22T12:09:14.015Z,24.11
2023-04-22T12:10:12.812Z,24.16
2023-04-22T12:11:12.857Z,24.21
2023-04-22T12:12:12.826Z,24.21
2023-04-22T12:13:12.765Z,24.20
2023-04-22T12:14:12.759Z,23.96
2023-04-22T12:15:13.868Z,23.88
2023-04-22T12:16:13.759Z,23.68
2023-04-22T12:17:12.810Z,23.73
2023-04-22T12:18:12.722Z,23.86
2023-04-22T12:19:12.895Z,23.95
2023-04-22T12:20:12.811Z,23.92
2023-04-22T12:21:12.780Z,23.86
2023-04-22T12:22:12.694Z,23.74
2023-04-22T12:23:12.681Z,23.87
2023-04-22T12:24:12.680Z,24.05
2023-04-22T12:25:12.679Z,23.96
2023-04-22T12:26:12.684Z,24.03
2023-04-22T12:27:12.652Z,24.21
2023-04-22T12:28:12.651Z,24.28
2023-04-22T12:29:12.636Z,24.32
2023-04-22T12:30:12.657Z,24.32
2023-04-22T12:31:12.713Z,24.48
2023-04-22T12:32:12.612Z,24.68
2023-04-22T12:33:12.609Z,24.65
2023-04-22T12:34:12.605Z,24.61
2023-04-22T12:35:12.595Z,24.63
2023-04-22T12:36:12.611Z,24.60
2023-04-22T12:37:12.590Z,24.18
2023-04-22T12:38:12.651Z,24.11
2023-04-22T12:39:12.562Z,24.02
2023-04-22T12:40:12.653Z,24.05
2023-04-22T12:41:12.540Z,23.96
2023-04-22T12:42:12.574Z,23.93
2023-04-22T12:43:12.540Z,23.93
2023-04-22T12:44:12.537Z,23.77
2023-04-22T12:45:12.524Z,23.71
2023-04-22T12:46:12.515Z,23.69
2023-04-22T12:47:12.533Z,23.73
2023-04-22T12:48:12.501Z,23.76
2023-04-22T12:49:12.489Z,23.71
2023-04-22T12:50:12.489Z,23.80
2023-04-22T12:51:12.478Z,23.81
2023-04-22T12:52:12.492Z,23.87
2023-04-22T12:53:12.459Z,23.78
2023-04-22T12:54:12.448Z,23.81
2023-04-22T12:55:12.435Z,23.78
2023-04-22T12:56:12.451Z,23.73
2023-04-22T12:57:12.448Z,23.69
2023-04-22T12:58:12.416Z,23.77
2023-04-22T12:59:12.416Z,23.73
2023-04-22T13:00:12.405Z,23.91
2023-04-22T13:01:12.402Z,23.93
2023-04-22T13:02:12.598Z,24.02